• Join FlightAware (Why Join?)
  • Login
  • US Flag 
06:59PM EST


 

Airport Tracker/Info


-or-


 

Live Flight TrackerFlight Track Log ✈ GUG700 ✈ 23-May-2012 ✈ MHTG / TGU - MGGT / GUA

Flight Track Log - Related Links

Times and Time Zones

All times are in EDT time to prevent confusion due to time zone crossing. See the GUG700 flight status page for this flight to view local times or setup timezone preferences in your user account.

Time Position Orientation Groundspeed Altitude Reporting Facility
EDT Latitude Longitude Course Direction KTS MPH feet Rate Location/Type
06:47PM 14.2495 -88.3774 279° West  Level Estimated
06:48PM 14.2601 -88.4437 279° West  Level Estimated
06:49PM 14.2706 -88.5099 279° West  Level Estimated
06:50PM 14.2812 -88.5761 279° West  Level Estimated
06:51PM 14.2917 -88.6424 279° West  Level Estimated
06:52PM 14.3022 -88.7087 279° West  Level Estimated
06:53PM 14.3127 -88.7749 279° West  Level Estimated
06:54PM 14.3232 -88.8412 279° West  Level Estimated
06:55PM 14.3337 -88.9075 279° West  Level Estimated
06:56PM 14.3441 -88.9737 279° West  Level Estimated
06:57PM 14.3545 -89.0400 279° West  Level Estimated
06:58PM 14.3649 -89.1063 279° West  Level Estimated
06:59PM 14.3753 -89.1726 279° West  Level Estimated
07:00PM 14.3857 -89.2389 279° West  Level Estimated
07:01PM 14.3960 -89.3052 279° West  Level Estimated
07:02PM 14.4064 -89.3716 279° West  Level Estimated
07:03PM 14.4167 -89.4379 279° West  Level Estimated
07:04PM 14.4270 -89.5042 279° West  Level Estimated
07:05PM 14.4372 -89.5705 279° West  Level Estimated
07:06PM 14.4475 -89.6369 279° West  Level Estimated
07:07PM 14.4577 -89.7032 279° West  Level Estimated
07:08PM 14.4679 -89.7696 279° West  Level Estimated
07:09PM 14.4782 -89.8360 279° West  Level Estimated
07:10PM 14.4883 -89.9023 279° West  Level Estimated
07:11PM 14.4985 -89.9687 279° West  Level Estimated
07:12PM 14.5086 -90.0351 279° West  Level Estimated
07:13PM 14.5188 -90.1015 279° West  Level Estimated
07:14PM 14.5289 -90.1678 279° West  Level Estimated
07:15PM 14.5390 -90.2342 279° West  Level Estimated
07:16PM 14.5490 -90.3006 279° West  Level Estimated
07:17PM 14.5591 -90.3671 279° West  Level Estimated
07:18PM 14.5691 -90.4335 279° West  Level Estimated
07:19PM 14.5791 -90.4999 279° West  Level Estimated
07:20PM 14.5891 -90.5663 99° East  Level Estimated
07:21PM 14.5791 -90.4999 279° West  Level Estimated
07:22PM 14.5891 -90.5663 99° East  Level Estimated
07:23PM 14.5791 -90.4999 279° West  Level Estimated
07:24PM 14.5891 -90.5663 99° East  Level Estimated
07:25PM 14.5791 -90.4999 279° West  Level Estimated
07:26PM 14.5891 -90.5663 99° East  Level Estimated
07:27PM 14.5791 -90.4999 279° West  Level Estimated
07:28PM 14.5891 -90.5663 99° East  Level Estimated
07:29PM 14.5791 -90.4999 279° West  Level Estimated
07:30PM 14.5891 -90.5663 99° East  Level Estimated
07:31PM 14.5791 -90.4999 279° West  Level Estimated
07:32PM 14.5891 -90.5663 99° East  Level Estimated
07:33PM 14.5791 -90.4999 279° West  Level Estimated
07:34PM 14.5891 -90.5663 99° East  Level Estimated
07:35PM 14.5791 -90.4999 99° East  Level Estimated